sensor_id;sensor_type;location;lat;lon;timestamp;P1;durP1;ratioP1;P2;durP2;ratioP2
67965;SDS011;54749;47.850;9.002;2023-03-01T00:01:14;28.52;;;10.50;;
67965;SDS011;54749;47.850;9.002;2023-03-01T00:03:43;29.98;;;10.80;;
67965;SDS011;54749;47.850;9.002;2023-03-01T00:06:10;30.75;;;11.10;;
67965;SDS011;54749;47.850;9.002;2023-03-01T00:08:38;31.77;;;11.53;;
67965;SDS011;54749;47.850;9.002;2023-03-01T00:13:34;33.00;;;11.80;;
67965;SDS011;54749;47.850;9.002;2023-03-01T00:16:05;29.98;;;11.43;;
67965;SDS011;54749;47.850;9.002;2023-03-01T00:18:33;32.65;;;12.43;;
67965;SDS011;54749;47.850;9.002;2023-03-01T00:21:01;26.97;;;10.70;;
67965;SDS011;54749;47.850;9.002;2023-03-01T00:23:28;31.35;;;11.35;;
67965;SDS011;54749;47.850;9.002;2023-03-01T00:25:55;27.35;;;11.13;;
67965;SDS011;54749;47.850;9.002;2023-03-01T00:28:22;35.20;;;12.40;;
67965;SDS011;54749;47.850;9.002;2023-03-01T00:30:49;30.02;;;11.43;;
67965;SDS011;54749;47.850;9.002;2023-03-01T00:33:17;32.27;;;12.47;;
67965;SDS011;54749;47.850;9.002;2023-03-01T00:35:44;29.75;;;11.40;;
67965;SDS011;54749;47.850;9.002;2023-03-01T00:38:11;35.58;;;12.98;;
67965;SDS011;54749;47.850;9.002;2023-03-01T00:40:38;29.77;;;11.18;;
67965;SDS011;54749;47.850;9.002;2023-03-01T00:43:05;28.90;;;10.90;;
67965;SDS011;54749;47.850;9.002;2023-03-01T00:45:32;28.23;;;10.57;;
67965;SDS011;54749;47.850;9.002;2023-03-01T00:47:59;31.38;;;11.55;;
67965;SDS011;54749;47.850;9.002;2023-03-01T00:50:27;29.77;;;11.30;;
67965;SDS011;54749;47.850;9.002;2023-03-01T00:52:54;31.98;;;12.07;;
67965;SDS011;54749;47.850;9.002;2023-03-01T00:55:22;33.30;;;11.90;;
67965;SDS011;54749;47.850;9.002;2023-03-01T00:57:50;29.60;;;11.40;;
67965;SDS011;54749;47.850;9.002;2023-03-01T01:00:18;26.33;;;10.10;;
67965;SDS011;54749;47.850;9.002;2023-03-01T01:02:46;29.17;;;12.00;;
67965;SDS011;54749;47.850;9.002;2023-03-01T01:05:14;31.55;;;11.05;;
67965;SDS011;54749;47.850;9.002;2023-03-01T01:07:46;32.03;;;12.75;;
67965;SDS011;54749;47.850;9.002;2023-03-01T01:10:14;31.67;;;11.10;;
67965;SDS011;54749;47.850;9.002;2023-03-01T01:12:44;29.88;;;11.70;;
67965;SDS011;54749;47.850;9.002;2023-03-01T01:15:12;32.17;;;12.88;;
67965;SDS011;54749;47.850;9.002;2023-03-01T01:17:40;31.02;;;11.82;;
67965;SDS011;54749;47.850;9.002;2023-03-01T01:20:08;34.28;;;12.48;;
67965;SDS011;54749;47.850;9.002;2023-03-01T01:22:35;31.13;;;12.77;;
67965;SDS011;54749;47.850;9.002;2023-03-01T01:25:02;31.38;;;12.43;;
67965;SDS011;54749;47.850;9.002;2023-03-01T01:27:29;34.75;;;13.88;;
67965;SDS011;54749;47.850;9.002;2023-03-01T01:29:57;30.92;;;12.07;;
67965;SDS011;54749;47.850;9.002;2023-03-01T01:32:24;32.67;;;12.75;;
67965;SDS011;54749;47.850;9.002;2023-03-01T01:34:53;32.87;;;12.27;;
67965;SDS011;54749;47.850;9.002;2023-03-01T01:37:19;29.13;;;11.55;;
67965;SDS011;54749;47.850;9.002;2023-03-01T01:39:47;30.38;;;12.20;;
67965;SDS011;54749;47.850;9.002;2023-03-01T01:42:15;32.75;;;11.38;;
67965;SDS011;54749;47.850;9.002;2023-03-01T01:44:46;37.60;;;13.32;;
67965;SDS011;54749;47.850;9.002;2023-03-01T01:47:16;30.73;;;11.93;;
67965;SDS011;54749;47.850;9.002;2023-03-01T01:49:48;33.00;;;12.77;;
67965;SDS011;54749;47.850;9.002;2023-03-01T01:52:18;33.10;;;11.80;;
67965;SDS011;54749;47.850;9.002;2023-03-01T01:54:50;29.77;;;12.18;;
67965;SDS011;54749;47.850;9.002;2023-03-01T01:57:26;28.40;;;11.40;;
67965;SDS011;54749;47.850;9.002;2023-03-01T01:59:57;31.83;;;11.77;;
67965;SDS011;54749;47.850;9.002;2023-03-01T02:02:27;34.55;;;12.48;;
67965;SDS011;54749;47.850;9.002;2023-03-01T02:05:00;31.02;;;12.05;;
67965;SDS011;54749;47.850;9.002;2023-03-01T02:07:37;30.52;;;11.63;;
67965;SDS011;54749;47.850;9.002;2023-03-01T02:10:06;30.20;;;10.90;;
67965;SDS011;54749;47.850;9.002;2023-03-01T02:12:34;27.60;;;10.83;;
67965;SDS011;54749;47.850;9.002;2023-03-01T02:15:04;30.67;;;11.70;;
67965;SDS011;54749;47.850;9.002;2023-03-01T02:17:31;31.42;;;11.38;;
67965;SDS011;54749;47.850;9.002;2023-03-01T02:20:16;31.15;;;11.52;;
67965;SDS011;54749;47.850;9.002;2023-03-01T02:22:50;31.10;;;12.13;;
67965;SDS011;54749;47.850;9.002;2023-03-01T02:25:22;30.37;;;11.20;;
67965;SDS011;54749;47.850;9.002;2023-03-01T02:30:37;34.25;;;11.52;;
67965;SDS011;54749;47.850;9.002;2023-03-01T02:33:25;32.75;;;12.45;;
67965;SDS011;54749;47.850;9.002;2023-03-01T02:35:53;34.75;;;13.10;;
67965;SDS011;54749;47.850;9.002;2023-03-01T02:38:21;34.13;;;13.33;;
67965;SDS011;54749;47.850;9.002;2023-03-01T02:40:50;34.97;;;13.55;;
67965;SDS011;54749;47.850;9.002;2023-03-01T02:43:18;26.63;;;10.93;;
67965;SDS011;54749;47.850;9.002;2023-03-01T02:45:51;29.48;;;10.80;;
67965;SDS011;54749;47.850;9.002;2023-03-01T02:48:19;35.53;;;11.52;;
67965;SDS011;54749;47.850;9.002;2023-03-01T02:53:48;30.13;;;11.48;;
67965;SDS011;54749;47.850;9.002;2023-03-01T02:56:25;31.17;;;11.15;;
67965;SDS011;54749;47.850;9.002;2023-03-01T02:58:52;29.13;;;11.57;;
67965;SDS011;54749;47.850;9.002;2023-03-01T03:01:20;34.75;;;11.73;;
67965;SDS011;54749;47.850;9.002;2023-03-01T03:03:48;28.43;;;10.73;;
67965;SDS011;54749;47.850;9.002;2023-03-01T03:06:16;28.27;;;10.18;;
67965;SDS011;54749;47.850;9.002;2023-03-01T03:08:43;32.55;;;12.02;;
67965;SDS011;54749;47.850;9.002;2023-03-01T03:11:11;34.42;;;12.27;;
67965;SDS011;54749;47.850;9.002;2023-03-01T03:13:38;30.92;;;10.77;;
67965;SDS011;54749;47.850;9.002;2023-03-01T03:16:15;28.33;;;10.63;;
67965;SDS011;54749;47.850;9.002;2023-03-01T03:18:42;30.23;;;12.25;;
67965;SDS011;54749;47.850;9.002;2023-03-01T03:21:10;32.50;;;12.25;;
67965;SDS011;54749;47.850;9.002;2023-03-01T03:23:38;30.90;;;11.68;;
67965;SDS011;54749;47.850;9.002;2023-03-01T03:26:06;33.97;;;12.15;;
67965;SDS011;54749;47.850;9.002;2023-03-01T03:28:33;31.43;;;11.63;;
67965;SDS011;54749;47.850;9.002;2023-03-01T03:31:01;29.85;;;11.70;;
67965;SDS011;54749;47.850;9.002;2023-03-01T03:33:31;31.63;;;12.02;;
67965;SDS011;54749;47.850;9.002;2023-03-01T03:35:58;31.25;;;11.82;;
67965;SDS011;54749;47.850;9.002;2023-03-01T03:38:25;32.65;;;11.52;;
67965;SDS011;54749;47.850;9.002;2023-03-01T03:40:59;34.13;;;12.93;;
67965;SDS011;54749;47.850;9.002;2023-03-01T03:43:29;32.80;;;11.52;;
67965;SDS011;54749;47.850;9.002;2023-03-01T03:45:58;26.77;;;10.73;;
67965;SDS011;54749;47.850;9.002;2023-03-01T03:48:25;34.35;;;12.50;;
67965;SDS011;54749;47.850;9.002;2023-03-01T03:50:54;30.33;;;11.90;;
67965;SDS011;54749;47.850;9.002;2023-03-01T03:53:23;34.43;;;13.03;;
67965;SDS011;54749;47.850;9.002;2023-03-01T03:55:52;32.78;;;12.07;;
67965;SDS011;54749;47.850;9.002;2023-03-01T03:58:21;38.75;;;12.90;;
67965;SDS011;54749;47.850;9.002;2023-03-01T04:00:50;35.53;;;12.55;;
67965;SDS011;54749;47.850;9.002;2023-03-01T04:03:19;38.83;;;13.65;;
67965;SDS011;54749;47.850;9.002;2023-03-01T04:05:47;29.97;;;11.37;;
67965;SDS011;54749;47.850;9.002;2023-03-01T04:08:17;32.40;;;12.27;;
67965;SDS011;54749;47.850;9.002;2023-03-01T04:10:51;35.28;;;12.43;;
67965;SDS011;54749;47.850;9.002;2023-03-01T04:13:20;36.17;;;12.63;;
67965;SDS011;54749;47.850;9.002;2023-03-01T04:15:49;32.40;;;11.27;;
67965;SDS011;54749;47.850;9.002;2023-03-01T04:18:21;29.57;;;11.53;;
67965;SDS011;54749;47.850;9.002;2023-03-01T04:20:51;33.17;;;11.93;;
67965;SDS011;54749;47.850;9.002;2023-03-01T04:23:22;30.88;;;11.82;;
67965;SDS011;54749;47.850;9.002;2023-03-01T04:28:24;34.17;;;12.50;;
67965;SDS011;54749;47.850;9.002;2023-03-01T04:31:05;35.63;;;13.63;;
67965;SDS011;54749;47.850;9.002;2023-03-01T04:33:50;36.15;;;12.07;;
67965;SDS011;54749;47.850;9.002;2023-03-01T04:36:20;34.72;;;12.05;;
67965;SDS011;54749;47.850;9.002;2023-03-01T04:38:49;38.40;;;13.27;;
67965;SDS011;54749;47.850;9.002;2023-03-01T04:41:17;33.20;;;12.00;;
67965;SDS011;54749;47.850;9.002;2023-03-01T04:43:45;33.63;;;12.70;;
67965;SDS011;54749;47.850;9.002;2023-03-01T04:46:14;36.15;;;12.63;;
67965;SDS011;54749;47.850;9.002;2023-03-01T04:48:44;34.50;;;13.27;;
67965;SDS011;54749;47.850;9.002;2023-03-01T04:51:11;36.03;;;12.48;;
67965;SDS011;54749;47.850;9.002;2023-03-01T04:53:42;32.88;;;11.73;;
67965;SDS011;54749;47.850;9.002;2023-03-01T04:56:10;36.20;;;13.00;;
67965;SDS011;54749;47.850;9.002;2023-03-01T04:58:37;35.85;;;13.75;;
67965;SDS011;54749;47.850;9.002;2023-03-01T05:01:08;38.50;;;13.60;;
67965;SDS011;54749;47.850;9.002;2023-03-01T05:03:49;30.10;;;11.45;;
67965;SDS011;54749;47.850;9.002;2023-03-01T05:06:18;36.92;;;13.60;;
67965;SDS011;54749;47.850;9.002;2023-03-01T05:08:46;36.37;;;12.80;;
67965;SDS011;54749;47.850;9.002;2023-03-01T05:11:13;33.85;;;12.98;;
67965;SDS011;54749;47.850;9.002;2023-03-01T05:13:41;35.50;;;13.70;;
67965;SDS011;54749;47.850;9.002;2023-03-01T05:16:08;33.70;;;12.52;;
67965;SDS011;54749;47.850;9.002;2023-03-01T05:18:39;36.97;;;12.90;;
67965;SDS011;54749;47.850;9.002;2023-03-01T05:21:08;36.60;;;12.07;;
67965;SDS011;54749;47.850;9.002;2023-03-01T05:23:36;36.05;;;12.68;;
67965;SDS011;54749;47.850;9.002;2023-03-01T05:26:04;37.72;;;13.68;;
67965;SDS011;54749;47.850;9.002;2023-03-01T05:28:36;31.13;;;11.90;;
67965;SDS011;54749;47.850;9.002;2023-03-01T05:31:04;37.40;;;12.85;;
67965;SDS011;54749;47.850;9.002;2023-03-01T05:33:36;34.37;;;12.77;;
67965;SDS011;54749;47.850;9.002;2023-03-01T05:36:08;39.65;;;13.85;;
67965;SDS011;54749;47.850;9.002;2023-03-01T05:38:36;41.50;;;14.63;;
67965;SDS011;54749;47.850;9.002;2023-03-01T05:41:03;35.53;;;13.35;;
67965;SDS011;54749;47.850;9.002;2023-03-01T05:43:31;34.05;;;12.55;;
67965;SDS011;54749;47.850;9.002;2023-03-01T05:46:01;42.93;;;13.17;;
67965;SDS011;54749;47.850;9.002;2023-03-01T05:48:28;36.70;;;13.18;;
67965;SDS011;54749;47.850;9.002;2023-03-01T05:50:57;36.80;;;13.23;;
67965;SDS011;54749;47.850;9.002;2023-03-01T05:53:26;30.58;;;12.05;;
67965;SDS011;54749;47.850;9.002;2023-03-01T05:55:53;39.15;;;13.00;;
67965;SDS011;54749;47.850;9.002;2023-03-01T05:58:20;40.87;;;14.40;;
67965;SDS011;54749;47.850;9.002;2023-03-01T06:00:48;39.10;;;13.52;;
67965;SDS011;54749;47.850;9.002;2023-03-01T06:03:16;37.00;;;13.43;;
67965;SDS011;54749;47.850;9.002;2023-03-01T06:05:44;40.97;;;13.90;;
67965;SDS011;54749;47.850;9.002;2023-03-01T06:08:12;39.20;;;13.50;;
67965;SDS011;54749;47.850;9.002;2023-03-01T06:10:39;39.17;;;13.00;;
67965;SDS011;54749;47.850;9.002;2023-03-01T06:13:07;38.92;;;13.38;;
67965;SDS011;54749;47.850;9.002;2023-03-01T06:15:34;37.95;;;14.10;;
67965;SDS011;54749;47.850;9.002;2023-03-01T06:18:01;37.85;;;13.13;;
67965;SDS011;54749;47.850;9.002;2023-03-01T06:20:28;35.90;;;13.57;;
67965;SDS011;54749;47.850;9.002;2023-03-01T06:22:56;36.70;;;13.77;;
67965;SDS011;54749;47.850;9.002;2023-03-01T06:25:24;39.97;;;14.50;;
67965;SDS011;54749;47.850;9.002;2023-03-01T06:27:53;41.92;;;14.57;;
67965;SDS011;54749;47.850;9.002;2023-03-01T06:30:21;37.85;;;13.75;;
67965;SDS011;54749;47.850;9.002;2023-03-01T06:32:49;35.78;;;13.52;;
67965;SDS011;54749;47.850;9.002;2023-03-01T06:35:16;39.80;;;13.37;;
67965;SDS011;54749;47.850;9.002;2023-03-01T06:37:45;37.92;;;13.82;;
67965;SDS011;54749;47.850;9.002;2023-03-01T06:40:13;40.03;;;13.38;;
67965;SDS011;54749;47.850;9.002;2023-03-01T06:42:42;36.38;;;13.60;;
67965;SDS011;54749;47.850;9.002;2023-03-01T06:45:14;41.17;;;14.40;;
67965;SDS011;54749;47.850;9.002;2023-03-01T06:47:43;34.53;;;13.10;;
67965;SDS011;54749;47.850;9.002;2023-03-01T06:50:10;36.25;;;13.85;;
67965;SDS011;54749;47.850;9.002;2023-03-01T06:52:38;38.33;;;13.90;;
67965;SDS011;54749;47.850;9.002;2023-03-01T06:55:05;39.00;;;13.82;;
67965;SDS011;54749;47.850;9.002;2023-03-01T06:57:33;43.28;;;14.20;;
67965;SDS011;54749;47.850;9.002;2023-03-01T07:00:00;38.67;;;14.13;;
67965;SDS011;54749;47.850;9.002;2023-03-01T07:02:27;37.03;;;13.80;;
67965;SDS011;54749;47.850;9.002;2023-03-01T07:04:55;39.72;;;13.93;;
67965;SDS011;54749;47.850;9.002;2023-03-01T07:07:22;38.67;;;13.93;;
67965;SDS011;54749;47.850;9.002;2023-03-01T07:09:50;38.85;;;13.85;;
67965;SDS011;54749;47.850;9.002;2023-03-01T07:12:17;34.63;;;12.87;;
67965;SDS011;54749;47.850;9.002;2023-03-01T07:14:44;34.20;;;13.63;;
67965;SDS011;54749;47.850;9.002;2023-03-01T07:17:11;35.28;;;12.98;;
67965;SDS011;54749;47.850;9.002;2023-03-01T07:19:38;38.35;;;14.55;;
67965;SDS011;54749;47.850;9.002;2023-03-01T07:22:05;40.10;;;13.95;;
67965;SDS011;54749;47.850;9.002;2023-03-01T07:24:34;35.50;;;13.47;;
67965;SDS011;54749;47.850;9.002;2023-03-01T07:27:01;37.63;;;13.57;;
67965;SDS011;54749;47.850;9.002;2023-03-01T07:29:29;37.95;;;13.65;;
67965;SDS011;54749;47.850;9.002;2023-03-01T07:31:55;38.35;;;12.80;;
67965;SDS011;54749;47.850;9.002;2023-03-01T07:34:23;37.28;;;13.35;;
67965;SDS011;54749;47.850;9.002;2023-03-01T07:36:49;35.67;;;13.50;;
67965;SDS011;54749;47.850;9.002;2023-03-01T07:39:17;33.65;;;12.55;;
67965;SDS011;54749;47.850;9.002;2023-03-01T07:41:45;38.97;;;14.45;;
67965;SDS011;54749;47.850;9.002;2023-03-01T07:44:12;35.45;;;12.32;;
67965;SDS011;54749;47.850;9.002;2023-03-01T07:46:39;36.05;;;13.68;;
67965;SDS011;54749;47.850;9.002;2023-03-01T07:49:06;38.27;;;14.20;;
67965;SDS011;54749;47.850;9.002;2023-03-01T07:51:33;40.47;;;13.80;;
67965;SDS011;54749;47.850;9.002;2023-03-01T07:54:01;37.60;;;13.32;;
67965;SDS011;54749;47.850;9.002;2023-03-01T07:56:27;42.55;;;15.70;;
67965;SDS011;54749;47.850;9.002;2023-03-01T07:58:56;36.05;;;13.52;;
67965;SDS011;54749;47.850;9.002;2023-03-01T08:01:22;39.07;;;14.47;;
67965;SDS011;54749;47.850;9.002;2023-03-01T08:03:50;36.80;;;13.43;;
67965;SDS011;54749;47.850;9.002;2023-03-01T08:06:17;37.58;;;13.27;;
67965;SDS011;54749;47.850;9.002;2023-03-01T08:08:45;33.65;;;13.23;;
67965;SDS011;54749;47.850;9.002;2023-03-01T08:11:13;40.22;;;13.52;;
67965;SDS011;54749;47.850;9.002;2023-03-01T08:13:42;36.40;;;12.20;;
67965;SDS011;54749;47.850;9.002;2023-03-01T08:16:10;36.08;;;12.88;;
67965;SDS011;54749;47.850;9.002;2023-03-01T08:18:39;34.40;;;13.18;;
67965;SDS011;54749;47.850;9.002;2023-03-01T08:21:07;35.75;;;13.65;;
67965;SDS011;54749;47.850;9.002;2023-03-01T08:23:39;34.80;;;13.07;;
67965;SDS011;54749;47.850;9.002;2023-03-01T08:26:10;33.27;;;12.93;;
67965;SDS011;54749;47.850;9.002;2023-03-01T08:28:40;38.42;;;14.27;;
67965;SDS011;54749;47.850;9.002;2023-03-01T08:33:43;37.72;;;13.07;;
67965;SDS011;54749;47.850;9.002;2023-03-01T08:36:10;36.30;;;13.68;;
67965;SDS011;54749;47.850;9.002;2023-03-01T08:38:37;37.53;;;14.47;;
67965;SDS011;54749;47.850;9.002;2023-03-01T08:41:04;36.05;;;13.20;;
67965;SDS011;54749;47.850;9.002;2023-03-01T08:43:31;35.45;;;13.65;;
67965;SDS011;54749;47.850;9.002;2023-03-01T08:45:58;35.97;;;12.57;;
67965;SDS011;54749;47.850;9.002;2023-03-01T08:48:27;35.13;;;13.60;;
67965;SDS011;54749;47.850;9.002;2023-03-01T08:50:55;38.27;;;12.97;;
67965;SDS011;54749;47.850;9.002;2023-03-01T08:53:22;39.42;;;14.88;;
67965;SDS011;54749;47.850;9.002;2023-03-01T08:55:49;36.25;;;13.43;;
67965;SDS011;54749;47.850;9.002;2023-03-01T08:58:16;34.20;;;13.50;;
67965;SDS011;54749;47.850;9.002;2023-03-01T09:00:46;32.97;;;13.15;;
67965;SDS011;54749;47.850;9.002;2023-03-01T09:03:14;37.60;;;14.33;;
67965;SDS011;54749;47.850;9.002;2023-03-01T09:05:41;34.78;;;13.38;;
67965;SDS011;54749;47.850;9.002;2023-03-01T09:08:08;36.53;;;12.90;;
67965;SDS011;54749;47.850;9.002;2023-03-01T09:10:37;34.22;;;13.25;;
67965;SDS011;54749;47.850;9.002;2023-03-01T09:13:05;36.80;;;14.00;;
67965;SDS011;54749;47.850;9.002;2023-03-01T09:15:31;33.13;;;12.27;;
67965;SDS011;54749;47.850;9.002;2023-03-01T09:18:00;35.80;;;12.65;;
67965;SDS011;54749;47.850;9.002;2023-03-01T09:20:27;36.80;;;13.40;;
67965;SDS011;54749;47.850;9.002;2023-03-01T09:22:54;36.38;;;13.02;;
67965;SDS011;54749;47.850;9.002;2023-03-01T09:25:21;36.63;;;13.70;;
67965;SDS011;54749;47.850;9.002;2023-03-01T09:27:50;32.87;;;12.40;;
67965;SDS011;54749;47.850;9.002;2023-03-01T09:30:18;37.25;;;13.18;;
67965;SDS011;54749;47.850;9.002;2023-03-01T09:32:46;38.35;;;13.88;;
67965;SDS011;54749;47.850;9.002;2023-03-01T09:35:13;36.65;;;13.40;;
67965;SDS011;54749;47.850;9.002;2023-03-01T09:37:40;33.22;;;12.90;;
67965;SDS011;54749;47.850;9.002;2023-03-01T09:40:12;37.63;;;14.00;;
67965;SDS011;54749;47.850;9.002;2023-03-01T09:42:47;35.25;;;13.48;;
67965;SDS011;54749;47.850;9.002;2023-03-01T09:45:26;34.60;;;13.88;;
67965;SDS011;54749;47.850;9.002;2023-03-01T09:47:57;34.15;;;13.18;;
67965;SDS011;54749;47.850;9.002;2023-03-01T09:50:25;39.35;;;15.68;;
67965;SDS011;54749;47.850;9.002;2023-03-01T09:53:00;37.90;;;13.77;;
67965;SDS011;54749;47.850;9.002;2023-03-01T10:04:24;31.55;;;13.10;;
67965;SDS011;54749;47.850;9.002;2023-03-01T10:09:40;36.17;;;13.65;;
67965;SDS011;54749;47.850;9.002;2023-03-01T10:12:14;35.55;;;13.63;;
67965;SDS011;54749;47.850;9.002;2023-03-01T10:17:31;35.13;;;13.77;;
67965;SDS011;54749;47.850;9.002;2023-03-01T10:20:22;34.80;;;13.17;;
67965;SDS011;54749;47.850;9.002;2023-03-01T10:22:56;37.65;;;13.73;;
67965;SDS011;54749;47.850;9.002;2023-03-01T10:28:17;31.40;;;12.52;;
67965;SDS011;54749;47.850;9.002;2023-03-01T10:30:51;37.95;;;13.23;;
67965;SDS011;54749;47.850;9.002;2023-03-01T10:33:21;35.10;;;13.23;;
67965;SDS011;54749;47.850;9.002;2023-03-01T10:35:50;34.05;;;13.07;;
67965;SDS011;54749;47.850;9.002;2023-03-01T10:38:18;40.92;;;13.77;;
67965;SDS011;54749;47.850;9.002;2023-03-01T10:40:56;33.35;;;13.25;;
67965;SDS011;54749;47.850;9.002;2023-03-01T10:43:26;35.28;;;13.35;;
67965;SDS011;54749;47.850;9.002;2023-03-01T10:45:58;36.47;;;14.03;;
67965;SDS011;54749;47.850;9.002;2023-03-01T10:48:26;32.95;;;12.82;;
67965;SDS011;54749;47.850;9.002;2023-03-01T10:56:07;36.63;;;14.27;;
67965;SDS011;54749;47.850;9.002;2023-03-01T10:58:41;35.80;;;13.23;;
67965;SDS011;54749;47.850;9.002;2023-03-01T11:01:25;33.15;;;13.43;;
67965;SDS011;54749;47.850;9.002;2023-03-01T11:04:09;36.78;;;14.13;;
67965;SDS011;54749;47.850;9.002;2023-03-01T11:06:40;37.55;;;13.85;;
67965;SDS011;54749;47.850;9.002;2023-03-01T11:11:54;38.53;;;13.57;;
67965;SDS011;54749;47.850;9.002;2023-03-01T11:14:26;37.35;;;14.38;;
67965;SDS011;54749;47.850;9.002;2023-03-01T11:16:58;43.08;;;14.35;;
67965;SDS011;54749;47.850;9.002;2023-03-01T11:19:27;39.70;;;13.57;;
67965;SDS011;54749;47.850;9.002;2023-03-01T11:21:59;35.47;;;13.73;;
67965;SDS011;54749;47.850;9.002;2023-03-01T11:24:31;37.03;;;13.53;;
67965;SDS011;54749;47.850;9.002;2023-03-01T11:29:49;36.17;;;13.75;;
67965;SDS011;54749;47.850;9.002;2023-03-01T11:32:25;37.67;;;13.52;;
67965;SDS011;54749;47.850;9.002;2023-03-01T11:34:56;36.95;;;14.45;;
67965;SDS011;54749;47.850;9.002;2023-03-01T11:37:33;40.20;;;13.57;;
67965;SDS011;54749;47.850;9.002;2023-03-01T11:40:13;35.88;;;14.65;;
67965;SDS011;54749;47.850;9.002;2023-03-01T11:45:20;36.25;;;12.68;;
67965;SDS011;54749;47.850;9.002;2023-03-01T11:50:39;35.37;;;13.53;;
67965;SDS011;54749;47.850;9.002;2023-03-01T11:56:05;35.20;;;13.68;;
67965;SDS011;54749;47.850;9.002;2023-03-01T11:59:01;42.85;;;15.32;;
67965;SDS011;54749;47.850;9.002;2023-03-01T12:07:06;41.20;;;15.13;;
67965;SDS011;54749;47.850;9.002;2023-03-01T12:10:30;34.20;;;13.57;;
67965;SDS011;54749;47.850;9.002;2023-03-01T12:18:13;36.13;;;13.83;;
67965;SDS011;54749;47.850;9.002;2023-03-01T12:20:51;41.22;;;14.30;;
67965;SDS011;54749;47.850;9.002;2023-03-01T12:28:53;36.50;;;14.88;;
67965;SDS011;54749;47.850;9.002;2023-03-01T12:37:09;32.88;;;13.32;;
67965;SDS011;54749;47.850;9.002;2023-03-01T12:42:47;37.30;;;12.98;;
67965;SDS011;54749;47.850;9.002;2023-03-01T12:48:21;35.40;;;12.98;;
67965;SDS011;54749;47.850;9.002;2023-03-01T12:50:57;33.38;;;12.55;;
67965;SDS011;54749;47.850;9.002;2023-03-01T12:53:32;36.78;;;12.93;;
67965;SDS011;54749;47.850;9.002;2023-03-01T12:56:04;37.30;;;13.18;;
67965;SDS011;54749;47.850;9.002;2023-03-01T13:07:29;31.33;;;12.32;;
67965;SDS011;54749;47.850;9.002;2023-03-01T13:15:54;31.65;;;11.95;;
67965;SDS011;54749;47.850;9.002;2023-03-01T13:20:55;30.38;;;11.95;;
67965;SDS011;54749;47.850;9.002;2023-03-01T13:23:34;34.28;;;12.45;;
67965;SDS011;54749;47.850;9.002;2023-03-01T13:31:02;34.40;;;12.35;;
67965;SDS011;54749;47.850;9.002;2023-03-01T13:35:57;32.70;;;12.35;;
67965;SDS011;54749;47.850;9.002;2023-03-01T13:41:05;32.63;;;12.27;;
67965;SDS011;54749;47.850;9.002;2023-03-01T13:43:37;36.67;;;13.48;;
67965;SDS011;54749;47.850;9.002;2023-03-01T13:46:23;27.27;;;11.38;;
67965;SDS011;54749;47.850;9.002;2023-03-01T13:48:52;33.70;;;13.35;;
67965;SDS011;54749;47.850;9.002;2023-03-01T13:51:23;37.93;;;12.73;;
67965;SDS011;54749;47.850;9.002;2023-03-01T13:53:53;40.97;;;12.88;;
67965;SDS011;54749;47.850;9.002;2023-03-01T13:56:26;37.97;;;13.48;;
67965;SDS011;54749;47.850;9.002;2023-03-01T14:03:57;34.87;;;14.30;;
67965;SDS011;54749;47.850;9.002;2023-03-01T14:06:26;38.28;;;15.10;;
67965;SDS011;54749;47.850;9.002;2023-03-01T14:09:27;33.47;;;12.48;;
67965;SDS011;54749;47.850;9.002;2023-03-01T14:17:36;32.33;;;12.77;;
67965;SDS011;54749;47.850;9.002;2023-03-01T14:20:18;34.65;;;12.73;;
67965;SDS011;54749;47.850;9.002;2023-03-01T14:22:47;35.47;;;12.75;;
67965;SDS011;54749;47.850;9.002;2023-03-01T14:25:24;33.88;;;12.43;;
67965;SDS011;54749;47.850;9.002;2023-03-01T14:27:55;33.35;;;12.57;;
67965;SDS011;54749;47.850;9.002;2023-03-01T14:30:24;31.67;;;11.67;;
67965;SDS011;54749;47.850;9.002;2023-03-01T14:32:55;33.90;;;13.07;;
67965;SDS011;54749;47.850;9.002;2023-03-01T14:35:25;36.78;;;12.15;;
67965;SDS011;54749;47.850;9.002;2023-03-01T14:37:55;32.13;;;12.63;;
67965;SDS011;54749;47.850;9.002;2023-03-01T14:40:29;31.08;;;12.85;;
67965;SDS011;54749;47.850;9.002;2023-03-01T14:43:00;32.43;;;12.43;;
67965;SDS011;54749;47.850;9.002;2023-03-01T14:45:29;35.70;;;12.73;;
67965;SDS011;54749;47.850;9.002;2023-03-01T14:48:01;35.78;;;13.48;;
67965;SDS011;54749;47.850;9.002;2023-03-01T14:50:31;32.08;;;12.52;;
67965;SDS011;54749;47.850;9.002;2023-03-01T14:53:01;33.55;;;13.30;;
67965;SDS011;54749;47.850;9.002;2023-03-01T14:55:32;31.80;;;12.17;;
67965;SDS011;54749;47.850;9.002;2023-03-01T14:58:04;34.55;;;12.63;;
67965;SDS011;54749;47.850;9.002;2023-03-01T15:00:32;33.20;;;13.00;;
67965;SDS011;54749;47.850;9.002;2023-03-01T15:03:05;30.58;;;11.60;;
67965;SDS011;54749;47.850;9.002;2023-03-01T15:05:40;26.90;;;10.50;;
67965;SDS011;54749;47.850;9.002;2023-03-01T15:08:16;30.70;;;11.77;;
67965;SDS011;54749;47.850;9.002;2023-03-01T15:13:34;35.08;;;13.15;;
67965;SDS011;54749;47.850;9.002;2023-03-01T15:18:49;31.88;;;12.90;;
67965;SDS011;54749;47.850;9.002;2023-03-01T15:21:19;25.90;;;10.87;;
67965;SDS011;54749;47.850;9.002;2023-03-01T15:23:54;30.60;;;12.02;;
67965;SDS011;54749;47.850;9.002;2023-03-01T15:26:24;31.77;;;12.23;;
67965;SDS011;54749;47.850;9.002;2023-03-01T15:29:01;28.17;;;11.30;;
67965;SDS011;54749;47.850;9.002;2023-03-01T15:31:32;30.95;;;11.38;;
67965;SDS011;54749;47.850;9.002;2023-03-01T15:34:10;29.03;;;11.00;;
67965;SDS011;54749;47.850;9.002;2023-03-01T15:36:49;28.70;;;11.35;;
67965;SDS011;54749;47.850;9.002;2023-03-01T15:42:58;30.45;;;12.40;;
67965;SDS011;54749;47.850;9.002;2023-03-01T15:47:47;30.13;;;11.40;;
67965;SDS011;54749;47.850;9.002;2023-03-01T15:50:30;29.23;;;12.63;;
67965;SDS011;54749;47.850;9.002;2023-03-01T15:53:00;28.80;;;11.20;;
67965;SDS011;54749;47.850;9.002;2023-03-01T15:55:31;30.48;;;11.32;;
67965;SDS011;54749;47.850;9.002;2023-03-01T15:58:00;29.55;;;12.00;;
67965;SDS011;54749;47.850;9.002;2023-03-01T16:00:31;31.23;;;12.57;;
67965;SDS011;54749;47.850;9.002;2023-03-01T16:02:58;28.98;;;11.20;;
67965;SDS011;54749;47.850;9.002;2023-03-01T16:05:27;32.60;;;13.02;;
67965;SDS011;54749;47.850;9.002;2023-03-01T16:07:57;30.45;;;11.73;;
67965;SDS011;54749;47.850;9.002;2023-03-01T16:10:24;30.65;;;11.63;;
67965;SDS011;54749;47.850;9.002;2023-03-01T16:12:51;26.97;;;10.50;;
67965;SDS011;54749;47.850;9.002;2023-03-01T16:15:21;28.73;;;10.95;;
67965;SDS011;54749;47.850;9.002;2023-03-01T16:17:50;27.60;;;11.27;;
67965;SDS011;54749;47.850;9.002;2023-03-01T16:20:22;30.30;;;11.05;;
67965;SDS011;54749;47.850;9.002;2023-03-01T16:22:59;27.98;;;11.07;;
67965;SDS011;54749;47.850;9.002;2023-03-01T16:25:31;25.83;;;10.50;;
67965;SDS011;54749;47.850;9.002;2023-03-01T16:27:59;29.45;;;12.30;;
67965;SDS011;54749;47.850;9.002;2023-03-01T16:30:30;27.65;;;10.68;;
67965;SDS011;54749;47.850;9.002;2023-03-01T16:32:57;27.02;;;10.60;;
67965;SDS011;54749;47.850;9.002;2023-03-01T16:35:25;30.60;;;11.18;;
67965;SDS011;54749;47.850;9.002;2023-03-01T16:37:52;25.80;;;10.60;;
67965;SDS011;54749;47.850;9.002;2023-03-01T16:40:24;25.48;;;10.60;;
67965;SDS011;54749;47.850;9.002;2023-03-01T16:42:54;25.25;;;10.40;;
67965;SDS011;54749;47.850;9.002;2023-03-01T16:45:33;28.08;;;10.35;;